sensor_id;sensor_type;location;lat;lon;timestamp;pressure;altitude;pressure_sealevel;temperature;humidity
58090;BME280;45149;50.976;6.120;2022-07-18T00:02:04;101223.59;;;17.64;100.00
58090;BME280;45149;50.976;6.120;2022-07-18T00:04:30;101220.19;;;17.57;100.00
58090;BME280;45149;50.976;6.120;2022-07-18T00:06:55;101219.53;;;17.50;100.00
58090;BME280;45149;50.976;6.120;2022-07-18T00:09:21;101218.03;;;17.42;100.00
58090;BME280;45149;50.976;6.120;2022-07-18T00:11:48;101220.75;;;17.42;100.00
58090;BME280;45149;50.976;6.120;2022-07-18T00:14:14;101225.97;;;17.32;100.00
58090;BME280;45149;50.976;6.120;2022-07-18T00:16:39;101232.72;;;17.18;100.00
58090;BME280;45149;50.976;6.120;2022-07-18T00:19:05;101228.47;;;17.22;100.00
58090;BME280;45149;50.976;6.120;2022-07-18T00:21:31;101233.06;;;17.21;100.00
58090;BME280;45149;50.976;6.120;2022-07-18T00:23:56;101233.19;;;17.14;100.00
58090;BME280;45149;50.976;6.120;2022-07-18T00:26:22;101226.09;;;16.96;100.00
58090;BME280;45149;50.976;6.120;2022-07-18T00:28:47;101219.53;;;16.92;100.00
58090;BME280;45149;50.976;6.120;2022-07-18T00:31:13;101214.75;;;16.83;100.00
58090;BME280;45149;50.976;6.120;2022-07-18T00:33:38;101212.66;;;16.73;100.00
58090;BME280;45149;50.976;6.120;2022-07-18T00:36:04;101216.16;;;16.73;100.00
58090;BME280;45149;50.976;6.120;2022-07-18T00:38:29;101217.69;;;16.69;100.00
58090;BME280;45149;50.976;6.120;2022-07-18T00:40:54;101209.88;;;16.56;100.00
58090;BME280;45149;50.976;6.120;2022-07-18T00:43:20;101218.53;;;16.58;100.00
58090;BME280;45149;50.976;6.120;2022-07-18T00:45:46;101217.50;;;16.59;100.00
58090;BME280;45149;50.976;6.120;2022-07-18T00:48:12;101201.31;;;16.47;100.00
58090;BME280;45149;50.976;6.120;2022-07-18T00:50:38;101209.16;;;16.60;100.00
58090;BME280;45149;50.976;6.120;2022-07-18T00:53:03;101205.41;;;16.61;100.00
58090;BME280;45149;50.976;6.120;2022-07-18T00:55:30;101202.59;;;16.68;100.00
58090;BME280;45149;50.976;6.120;2022-07-18T00:57:56;101198.13;;;16.62;100.00
58090;BME280;45149;50.976;6.120;2022-07-18T01:00:22;101197.66;;;16.65;100.00
58090;BME280;45149;50.976;6.120;2022-07-18T01:03:06;101200.03;;;16.61;100.00
58090;BME280;45149;50.976;6.120;2022-07-18T01:05:31;101185.81;;;16.66;100.00
58090;BME280;45149;50.976;6.120;2022-07-18T01:07:57;101182.44;;;16.59;100.00
58090;BME280;45149;50.976;6.120;2022-07-18T01:10:22;101187.72;;;16.54;100.00
58090;BME280;45149;50.976;6.120;2022-07-18T01:12:47;101190.53;;;16.47;100.00
58090;BME280;45149;50.976;6.120;2022-07-18T01:15:13;101187.16;;;16.40;100.00
58090;BME280;45149;50.976;6.120;2022-07-18T01:17:38;101191.38;;;16.36;100.00
58090;BME280;45149;50.976;6.120;2022-07-18T01:20:05;101191.16;;;16.25;100.00
58090;BME280;45149;50.976;6.120;2022-07-18T01:22:31;101187.41;;;16.15;100.00
58090;BME280;45149;50.976;6.120;2022-07-18T01:24:57;101188.09;;;16.10;100.00
58090;BME280;45149;50.976;6.120;2022-07-18T01:27:22;101185.41;;;16.10;100.00
58090;BME280;45149;50.976;6.120;2022-07-18T01:29:51;101189.50;;;16.12;100.00
58090;BME280;45149;50.976;6.120;2022-07-18T01:32:17;101191.41;;;15.88;100.00
58090;BME280;45149;50.976;6.120;2022-07-18T01:34:44;101189.22;;;15.67;100.00
58090;BME280;45149;50.976;6.120;2022-07-18T01:37:09;101191.19;;;15.59;100.00
58090;BME280;45149;50.976;6.120;2022-07-18T01:39:35;101192.09;;;15.53;100.00
58090;BME280;45149;50.976;6.120;2022-07-18T01:42:05;101185.06;;;15.52;100.00
58090;BME280;45149;50.976;6.120;2022-07-18T01:44:31;101185.44;;;15.56;100.00
58090;BME280;45149;50.976;6.120;2022-07-18T01:46:57;101185.22;;;15.45;100.00
58090;BME280;45149;50.976;6.120;2022-07-18T01:49:23;101181.25;;;15.60;100.00
58090;BME280;45149;50.976;6.120;2022-07-18T01:51:51;101184.25;;;15.52;100.00
58090;BME280;45149;50.976;6.120;2022-07-18T01:54:23;101184.56;;;15.32;100.00
58090;BME280;45149;50.976;6.120;2022-07-18T01:56:48;101175.28;;;15.16;100.00
58090;BME280;45149;50.976;6.120;2022-07-18T01:59:14;101171.41;;;15.11;100.00
58090;BME280;45149;50.976;6.120;2022-07-18T02:01:39;101168.97;;;14.91;100.00
58090;BME280;45149;50.976;6.120;2022-07-18T02:04:05;101167.97;;;14.74;100.00
58090;BME280;45149;50.976;6.120;2022-07-18T02:06:30;101165.16;;;14.81;100.00
58090;BME280;45149;50.976;6.120;2022-07-18T02:08:56;101173.22;;;14.81;100.00
58090;BME280;45149;50.976;6.120;2022-07-18T02:11:21;101164.59;;;14.78;100.00
58090;BME280;45149;50.976;6.120;2022-07-18T02:13:47;101168.41;;;14.71;100.00
58090;BME280;45149;50.976;6.120;2022-07-18T02:16:12;101169.00;;;14.73;100.00
58090;BME280;45149;50.976;6.120;2022-07-18T02:18:37;101162.91;;;14.66;100.00
58090;BME280;45149;50.976;6.120;2022-07-18T02:21:03;101165.13;;;14.69;100.00
58090;BME280;45149;50.976;6.120;2022-07-18T02:23:28;101163.78;;;14.78;100.00
58090;BME280;45149;50.976;6.120;2022-07-18T02:25:54;101154.78;;;14.84;100.00
58090;BME280;45149;50.976;6.120;2022-07-18T02:28:21;101158.28;;;14.85;100.00
58090;BME280;45149;50.976;6.120;2022-07-18T02:30:46;101154.41;;;14.81;100.00
58090;BME280;45149;50.976;6.120;2022-07-18T02:33:14;101148.91;;;14.75;100.00
58090;BME280;45149;50.976;6.120;2022-07-18T02:35:39;101149.56;;;14.89;100.00
58090;BME280;45149;50.976;6.120;2022-07-18T02:38:04;101153.34;;;15.00;100.00
58090;BME280;45149;50.976;6.120;2022-07-18T02:40:30;101166.97;;;14.87;100.00
58090;BME280;45149;50.976;6.120;2022-07-18T02:42:55;101156.38;;;14.73;100.00
58090;BME280;45149;50.976;6.120;2022-07-18T02:45:20;101158.91;;;14.68;100.00
58090;BME280;45149;50.976;6.120;2022-07-18T02:47:46;101160.03;;;14.60;100.00
58090;BME280;45149;50.976;6.120;2022-07-18T02:50:12;101166.28;;;14.54;100.00
58090;BME280;45149;50.976;6.120;2022-07-18T02:52:39;101168.00;;;14.49;100.00
58090;BME280;45149;50.976;6.120;2022-07-18T02:55:05;101161.59;;;14.68;100.00
58090;BME280;45149;50.976;6.120;2022-07-18T02:57:31;101161.81;;;14.67;100.00
58090;BME280;45149;50.976;6.120;2022-07-18T02:59:56;101167.22;;;14.97;100.00
58090;BME280;45149;50.976;6.120;2022-07-18T03:02:22;101167.22;;;14.97;100.00
58090;BME280;45149;50.976;6.120;2022-07-18T03:04:47;101159.00;;;15.10;100.00
58090;BME280;45149;50.976;6.120;2022-07-18T03:07:12;101158.13;;;14.98;100.00
58090;BME280;45149;50.976;6.120;2022-07-18T03:09:38;101156.84;;;15.01;100.00
58090;BME280;45149;50.976;6.120;2022-07-18T03:12:03;101162.31;;;14.94;100.00
58090;BME280;45149;50.976;6.120;2022-07-18T03:14:29;101158.81;;;14.93;100.00
58090;BME280;45149;50.976;6.120;2022-07-18T03:16:54;101147.03;;;14.94;100.00
58090;BME280;45149;50.976;6.120;2022-07-18T03:19:20;101144.22;;;15.01;100.00
58090;BME280;45149;50.976;6.120;2022-07-18T03:21:45;101139.16;;;14.93;100.00
58090;BME280;45149;50.976;6.120;2022-07-18T03:24:11;101133.78;;;14.93;100.00
58090;BME280;45149;50.976;6.120;2022-07-18T03:26:39;101139.66;;;15.02;100.00
58090;BME280;45149;50.976;6.120;2022-07-18T03:29:04;101134.53;;;15.12;100.00
58090;BME280;45149;50.976;6.120;2022-07-18T03:31:30;101141.44;;;15.08;100.00
58090;BME280;45149;50.976;6.120;2022-07-18T03:33:55;101140.00;;;15.05;100.00
58090;BME280;45149;50.976;6.120;2022-07-18T03:36:20;101145.69;;;15.16;100.00
58090;BME280;45149;50.976;6.120;2022-07-18T03:38:46;101139.22;;;15.05;100.00
58090;BME280;45149;50.976;6.120;2022-07-18T03:41:12;101139.44;;;15.03;100.00
58090;BME280;45149;50.976;6.120;2022-07-18T03:43:38;101133.03;;;15.04;100.00
58090;BME280;45149;50.976;6.120;2022-07-18T03:46:04;101142.44;;;14.95;100.00
58090;BME280;45149;50.976;6.120;2022-07-18T03:48:29;101139.56;;;14.78;100.00
58090;BME280;45149;50.976;6.120;2022-07-18T03:50:55;101140.97;;;14.81;100.00
58090;BME280;45149;50.976;6.120;2022-07-18T03:53:20;101148.53;;;14.90;100.00
58090;BME280;45149;50.976;6.120;2022-07-18T03:55:46;101145.31;;;14.82;100.00
58090;BME280;45149;50.976;6.120;2022-07-18T03:58:11;101142.34;;;14.71;100.00
58090;BME280;45149;50.976;6.120;2022-07-18T04:00:37;101149.41;;;14.84;100.00
58090;BME280;45149;50.976;6.120;2022-07-18T04:03:02;101139.66;;;14.71;100.00
58090;BME280;45149;50.976;6.120;2022-07-18T04:05:27;101144.28;;;14.64;100.00
58090;BME280;45149;50.976;6.120;2022-07-18T04:07:53;101139.44;;;14.73;100.00
58090;BME280;45149;50.976;6.120;2022-07-18T04:10:18;101148.53;;;14.72;100.00
58090;BME280;45149;50.976;6.120;2022-07-18T04:12:48;101142.13;;;14.73;100.00
58090;BME280;45149;50.976;6.120;2022-07-18T04:15:14;101139.66;;;14.71;100.00
58090;BME280;45149;50.976;6.120;2022-07-18T04:17:40;101132.88;;;14.69;100.00
58090;BME280;45149;50.976;6.120;2022-07-18T04:20:06;101130.66;;;14.77;100.00
58090;BME280;45149;50.976;6.120;2022-07-18T04:22:31;101134.28;;;14.71;100.00
58090;BME280;45149;50.976;6.120;2022-07-18T04:24:57;101127.50;;;14.69;100.00
58090;BME280;45149;50.976;6.120;2022-07-18T04:27:22;101129.16;;;14.82;100.00
58090;BME280;45149;50.976;6.120;2022-07-18T04:29:47;101122.66;;;14.89;100.00
58090;BME280;45149;50.976;6.120;2022-07-18T04:32:13;101121.97;;;14.94;100.00
58090;BME280;45149;50.976;6.120;2022-07-18T04:34:38;101125.53;;;15.06;100.00
58090;BME280;45149;50.976;6.120;2022-07-18T04:37:03;101128.03;;;15.20;100.00
58090;BME280;45149;50.976;6.120;2022-07-18T04:39:29;101122.88;;;15.30;100.00
58090;BME280;45149;50.976;6.120;2022-07-18T04:41:54;101118.44;;;15.36;100.00
58090;BME280;45149;50.976;6.120;2022-07-18T04:44:20;101126.19;;;15.32;100.00
58090;BME280;45149;50.976;6.120;2022-07-18T04:46:46;101116.47;;;15.31;100.00
58090;BME280;45149;50.976;6.120;2022-07-18T04:49:11;101121.63;;;15.33;100.00
58090;BME280;45149;50.976;6.120;2022-07-18T04:51:36;101113.06;;;15.36;100.00
58090;BME280;45149;50.976;6.120;2022-07-18T04:54:02;101118.91;;;15.33;100.00
58090;BME280;45149;50.976;6.120;2022-07-18T04:56:27;101118.13;;;15.44;100.00
58090;BME280;45149;50.976;6.120;2022-07-18T04:58:52;101117.78;;;15.40;100.00
58090;BME280;45149;50.976;6.120;2022-07-18T05:01:18;101110.28;;;15.42;100.00
58090;BME280;45149;50.976;6.120;2022-07-18T05:03:43;101117.91;;;15.57;100.00
58090;BME280;45149;50.976;6.120;2022-07-18T05:06:08;101109.84;;;15.69;100.00
58090;BME280;45149;50.976;6.120;2022-07-18T05:08:34;101123.94;;;15.83;100.00
58090;BME280;45149;50.976;6.120;2022-07-18T05:10:59;101120.41;;;15.94;100.00
58090;BME280;45149;50.976;6.120;2022-07-18T05:13:25;101116.19;;;16.10;100.00
58090;BME280;45149;50.976;6.120;2022-07-18T05:15:50;101116.44;;;16.09;100.00
58090;BME280;45149;50.976;6.120;2022-07-18T05:18:16;101122.88;;;16.08;100.00
58090;BME280;45149;50.976;6.120;2022-07-18T05:20:41;101115.47;;;16.15;100.00
58090;BME280;45149;50.976;6.120;2022-07-18T05:23:07;101118.97;;;16.27;100.00
58090;BME280;45149;50.976;6.120;2022-07-18T05:25:32;101114.00;;;16.36;100.00
58090;BME280;45149;50.976;6.120;2022-07-18T05:27:58;101119.38;;;16.48;100.00
58090;BME280;45149;50.976;6.120;2022-07-18T05:30:23;101117.72;;;16.59;100.00
58090;BME280;45149;50.976;6.120;2022-07-18T05:32:51;101123.91;;;16.71;100.00
58090;BME280;45149;50.976;6.120;2022-07-18T05:35:20;101118.69;;;16.81;100.00
58090;BME280;45149;50.976;6.120;2022-07-18T05:37:45;101122.19;;;16.94;100.00
58090;BME280;45149;50.976;6.120;2022-07-18T05:40:13;101131.13;;;17.11;100.00
58090;BME280;45149;50.976;6.120;2022-07-18T05:42:39;101122.88;;;17.35;100.00
58090;BME280;45149;50.976;6.120;2022-07-18T05:45:05;101115.78;;;17.46;100.00
58090;BME280;45149;50.976;6.120;2022-07-18T05:47:31;101123.66;;;17.64;100.00
58090;BME280;45149;50.976;6.120;2022-07-18T05:49:57;101118.47;;;17.80;100.00
58090;BME280;45149;50.976;6.120;2022-07-18T05:52:22;101129.03;;;17.98;100.00
58090;BME280;45149;50.976;6.120;2022-07-18T05:54:47;101124.41;;;18.16;100.00
58090;BME280;45149;50.976;6.120;2022-07-18T05:57:13;101128.94;;;18.32;100.00
58090;BME280;45149;50.976;6.120;2022-07-18T05:59:38;101120.31;;;18.58;100.00
58090;BME280;45149;50.976;6.120;2022-07-18T06:02:03;101124.22;;;18.67;100.00
58090;BME280;45149;50.976;6.120;2022-07-18T06:04:29;101122.06;;;18.69;100.00
58090;BME280;45149;50.976;6.120;2022-07-18T06:06:54;101121.50;;;18.67;100.00
58090;BME280;45149;50.976;6.120;2022-07-18T06:09:19;101124.94;;;18.84;100.00
58090;BME280;45149;50.976;6.120;2022-07-18T06:11:45;101123.19;;;18.95;100.00
58090;BME280;45149;50.976;6.120;2022-07-18T06:14:10;101124.25;;;19.22;100.00
58090;BME280;45149;50.976;6.120;2022-07-18T06:16:36;101119.28;;;19.46;100.00
58090;BME280;45149;50.976;6.120;2022-07-18T06:19:04;101120.34;;;19.77;100.00
58090;BME280;45149;50.976;6.120;2022-07-18T06:21:29;101124.84;;;19.99;100.00
58090;BME280;45149;50.976;6.120;2022-07-18T06:23:55;101120.78;;;20.01;100.00
58090;BME280;45149;50.976;6.120;2022-07-18T06:26:20;101132.84;;;20.26;100.00
58090;BME280;45149;50.976;6.120;2022-07-18T06:28:46;101129.38;;;20.41;100.00
58090;BME280;45149;50.976;6.120;2022-07-18T06:31:11;101130.34;;;20.78;100.00
58090;BME280;45149;50.976;6.120;2022-07-18T06:33:40;101132.31;;;21.29;100.00
58090;BME280;45149;50.976;6.120;2022-07-18T06:36:05;101127.72;;;21.60;100.00
58090;BME280;45149;50.976;6.120;2022-07-18T06:38:31;101132.84;;;21.87;100.00
58090;BME280;45149;50.976;6.120;2022-07-18T06:40:56;101128.16;;;22.14;100.00
58090;BME280;45149;50.976;6.120;2022-07-18T06:43:22;101131.84;;;22.49;98.63
58090;BME280;45149;50.976;6.120;2022-07-18T06:45:47;101126.56;;;22.73;94.64
58090;BME280;45149;50.976;6.120;2022-07-18T06:48:14;101131.09;;;22.88;98.99
58090;BME280;45149;50.976;6.120;2022-07-18T06:50:40;101133.03;;;23.27;96.30
58090;BME280;45149;50.976;6.120;2022-07-18T06:53:06;101129.97;;;23.34;85.09
58090;BME280;45149;50.976;6.120;2022-07-18T06:55:31;101128.81;;;23.40;83.54
58090;BME280;45149;50.976;6.120;2022-07-18T06:57:56;101129.72;;;23.30;80.79
58090;BME280;45149;50.976;6.120;2022-07-18T07:00:22;101125.88;;;23.66;75.99
58090;BME280;45149;50.976;6.120;2022-07-18T07:02:48;101124.72;;;24.01;73.46
58090;BME280;45149;50.976;6.120;2022-07-18T07:05:18;101134.75;;;24.30;75.75
58090;BME280;45149;50.976;6.120;2022-07-18T07:07:44;101135.78;;;24.78;69.34
58090;BME280;45149;50.976;6.120;2022-07-18T07:10:10;101139.63;;;24.96;67.46
58090;BME280;45149;50.976;6.120;2022-07-18T07:12:45;101133.03;;;25.16;68.51
58090;BME280;45149;50.976;6.120;2022-07-18T07:15:10;101132.69;;;25.55;68.05
58090;BME280;45149;50.976;6.120;2022-07-18T07:17:36;101126.31;;;25.60;56.59
58090;BME280;45149;50.976;6.120;2022-07-18T07:20:07;101126.84;;;25.76;53.46
58090;BME280;45149;50.976;6.120;2022-07-18T07:22:44;101126.56;;;26.05;55.63
58090;BME280;45149;50.976;6.120;2022-07-18T07:25:10;101129.31;;;26.19;54.54
58090;BME280;45149;50.976;6.120;2022-07-18T07:27:35;101131.94;;;26.38;53.88
58090;BME280;45149;50.976;6.120;2022-07-18T07:30:00;101124.03;;;26.37;51.85
58090;BME280;45149;50.976;6.120;2022-07-18T07:32:26;101124.34;;;26.86;50.75
58090;BME280;45149;50.976;6.120;2022-07-18T07:34:51;101119.66;;;27.09;46.81
58090;BME280;45149;50.976;6.120;2022-07-18T07:37:17;101121.00;;;26.75;48.28
58090;BME280;45149;50.976;6.120;2022-07-18T07:39:42;101119.78;;;27.04;47.45
58090;BME280;45149;50.976;6.120;2022-07-18T07:42:08;101115.63;;;27.29;46.17
58090;BME280;45149;50.976;6.120;2022-07-18T07:44:33;101119.44;;;27.19;44.68
58090;BME280;45149;50.976;6.120;2022-07-18T07:46:58;101108.41;;;27.33;44.06
58090;BME280;45149;50.976;6.120;2022-07-18T07:49:25;101109.66;;;27.50;44.87
58090;BME280;45149;50.976;6.120;2022-07-18T07:51:50;101114.09;;;27.77;44.99
58090;BME280;45149;50.976;6.120;2022-07-18T07:54:15;101109.66;;;27.50;43.17
58090;BME280;45149;50.976;6.120;2022-07-18T07:56:41;101116.28;;;27.97;44.06
58090;BME280;45149;50.976;6.120;2022-07-18T07:59:06;101117.69;;;28.18;42.97
58090;BME280;45149;50.976;6.120;2022-07-18T08:01:32;101114.16;;;28.26;43.34
58090;BME280;45149;50.976;6.120;2022-07-18T08:03:57;101109.56;;;28.04;42.69
58090;BME280;45149;50.976;6.120;2022-07-18T08:06:23;101111.59;;;28.29;41.83
58090;BME280;45149;50.976;6.120;2022-07-18T08:08:49;101110.13;;;28.50;41.86
58090;BME280;45149;50.976;6.120;2022-07-18T08:11:14;101111.81;;;28.77;41.80
58090;BME280;45149;50.976;6.120;2022-07-18T08:13:40;101110.34;;;28.79;41.76
58090;BME280;45149;50.976;6.120;2022-07-18T08:16:05;101119.56;;;28.92;39.87
58090;BME280;45149;50.976;6.120;2022-07-18T08:18:30;101113.84;;;29.33;38.65
58090;BME280;45149;50.976;6.120;2022-07-18T08:20:56;101111.56;;;29.52;38.72
58090;BME280;45149;50.976;6.120;2022-07-18T08:23:21;101110.22;;;29.58;38.95
58090;BME280;45149;50.976;6.120;2022-07-18T08:25:47;101104.63;;;29.93;39.28
58090;BME280;45149;50.976;6.120;2022-07-18T08:28:12;101117.47;;;30.10;38.78
58090;BME280;45149;50.976;6.120;2022-07-18T08:30:39;101113.88;;;30.48;39.27
58090;BME280;45149;50.976;6.120;2022-07-18T08:33:06;101121.19;;;30.44;36.96
58090;BME280;45149;50.976;6.120;2022-07-18T08:35:32;101124.75;;;30.45;35.68
58090;BME280;45149;50.976;6.120;2022-07-18T08:37:58;101117.28;;;31.21;35.44
58090;BME280;45149;50.976;6.120;2022-07-18T08:40:24;101111.88;;;31.12;33.28
58090;BME280;45149;50.976;6.120;2022-07-18T08:42:52;101118.00;;;32.01;33.38
58090;BME280;45149;50.976;6.120;2022-07-18T08:45:22;101112.72;;;32.08;32.69
58090;BME280;45149;50.976;6.120;2022-07-18T08:47:48;101108.41;;;32.35;32.21
58090;BME280;45149;50.976;6.120;2022-07-18T08:50:13;101110.13;;;34.01;30.85
58090;BME280;45149;50.976;6.120;2022-07-18T08:52:39;101113.72;;;34.38;30.91
58090;BME280;45149;50.976;6.120;2022-07-18T08:55:07;101113.06;;;34.64;31.19
58090;BME280;45149;50.976;6.120;2022-07-18T08:57:32;101106.28;;;34.81;29.46
58090;BME280;45149;50.976;6.120;2022-07-18T08:59:58;101107.34;;;34.01;29.07
58090;BME280;45149;50.976;6.120;2022-07-18T09:02:26;101108.50;;;35.34;28.98
58090;BME280;45149;50.976;6.120;2022-07-18T09:04:52;101108.50;;;35.34;28.51
58090;BME280;45149;50.976;6.120;2022-07-18T09:07:26;101097.63;;;35.48;27.84
58090;BME280;45149;50.976;6.120;2022-07-18T09:09:57;101106.81;;;35.29;27.83
58090;BME280;45149;50.976;6.120;2022-07-18T09:12:27;101102.53;;;36.09;26.34
58090;BME280;45149;50.976;6.120;2022-07-18T09:14:54;101101.03;;;35.84;26.58
58090;BME280;45149;50.976;6.120;2022-07-18T09:17:26;101098.78;;;35.24;26.01
58090;BME280;45149;50.976;6.120;2022-07-18T09:20:11;101095.75;;;35.10;25.74
58090;BME280;45149;50.976;6.120;2022-07-18T09:22:41;101097.38;;;34.32;26.65
58090;BME280;45149;50.976;6.120;2022-07-18T09:25:09;101102.19;;;35.37;25.61
58090;BME280;45149;50.976;6.120;2022-07-18T09:27:38;101098.50;;;35.29;26.39
58090;BME280;45149;50.976;6.120;2022-07-18T09:30:23;101106.47;;;36.04;25.91
58090;BME280;45149;50.976;6.120;2022-07-18T09:33:09;101109.44;;;36.45;24.95
58090;BME280;45149;50.976;6.120;2022-07-18T09:35:46;101106.28;;;36.20;24.47
58090;BME280;45149;50.976;6.120;2022-07-18T09:38:27;101107.59;;;36.30;24.18
58090;BME280;45149;50.976;6.120;2022-07-18T09:40:54;101112.34;;;36.56;24.67
58090;BME280;45149;50.976;6.120;2022-07-18T09:43:22;101110.69;;;35.94;24.75
58090;BME280;45149;50.976;6.120;2022-07-18T09:45:50;101113.03;;;35.92;24.66
58090;BME280;45149;50.976;6.120;2022-07-18T09:48:20;101115.72;;;35.85;24.77
58090;BME280;45149;50.976;6.120;2022-07-18T09:53:20;101106.19;;;35.86;24.87
58090;BME280;45149;50.976;6.120;2022-07-18T09:56:09;101111.69;;;35.59;24.69
58090;BME280;45149;50.976;6.120;2022-07-18T09:58:37;101119.94;;;35.79;25.08
58090;BME280;45149;50.976;6.120;2022-07-18T10:01:05;101115.47;;;36.24;26.46
58090;BME280;45149;50.976;6.120;2022-07-18T10:03:30;101104.22;;;36.78;26.40
58090;BME280;45149;50.976;6.120;2022-07-18T10:05:57;101109.75;;;37.46;24.99
58090;BME280;45149;50.976;6.120;2022-07-18T10:08:26;101105.94;;;36.86;25.75
58090;BME280;45149;50.976;6.120;2022-07-18T10:10:53;101109.09;;;37.22;23.72
58090;BME280;45149;50.976;6.120;2022-07-18T10:13:20;101109.50;;;36.83;24.29
58090;BME280;45149;50.976;6.120;2022-07-18T10:15:47;101110.78;;;37.30;24.72
58090;BME280;45149;50.976;6.120;2022-07-18T10:18:18;101103.44;;;37.11;24.28
58090;BME280;45149;50.976;6.120;2022-07-18T10:20:48;101107.41;;;37.51;25.32
58090;BME280;45149;50.976;6.120;2022-07-18T10:23:28;101109.06;;;37.63;23.50
58090;BME280;45149;50.976;6.120;2022-07-18T10:26:14;101103.09;;;37.65;24.50
58090;BME280;45149;50.976;6.120;2022-07-18T10:31:24;101099.91;;;36.80;23.93
58090;BME280;45149;50.976;6.120;2022-07-18T10:33:50;101097.53;;;37.61;23.68
58090;BME280;45149;50.976;6.120;2022-07-18T10:36:17;101098.06;;;37.78;24.02
58090;BME280;45149;50.976;6.120;2022-07-18T10:39:08;101100.41;;;38.38;23.77
58090;BME280;45149;50.976;6.120;2022-07-18T10:44:38;101089.75;;;37.85;23.19
58090;BME280;45149;50.976;6.120;2022-07-18T10:47:16;101092.06;;;37.76;23.20
58090;BME280;45149;50.976;6.120;2022-07-18T10:57:43;101084.69;;;38.09;23.66
58090;BME280;45149;50.976;6.120;2022-07-18T11:00:36;101078.47;;;38.33;23.50
58090;BME280;45149;50.976;6.120;2022-07-18T11:03:11;101081.28;;;38.37;22.73
58090;BME280;45149;50.976;6.120;2022-07-18T11:05:49;101086.19;;;38.69;22.29
58090;BME280;45149;50.976;6.120;2022-07-18T11:08:19;101085.34;;;37.80;22.85
58090;BME280;45149;50.976;6.120;2022-07-18T11:16:25;101080.84;;;37.68;22.61
58090;BME280;45149;50.976;6.120;2022-07-18T11:21:25;101074.09;;;38.36;22.77
58090;BME280;45149;50.976;6.120;2022-07-18T11:24:03;101067.97;;;38.05;22.50
58090;BME280;45149;50.976;6.120;2022-07-18T11:26:29;101065.56;;;38.00;23.10
58090;BME280;45149;50.976;6.120;2022-07-18T11:29:08;101066.56;;;38.40;24.12
58090;BME280;45149;50.976;6.120;2022-07-18T11:31:49;101053.44;;;38.48;23.84
58090;BME280;45149;50.976;6.120;2022-07-18T11:34:15;101053.44;;;38.51;22.63
58090;BME280;45149;50.976;6.120;2022-07-18T11:36:43;101056.75;;;39.07;23.51
58090;BME280;45149;50.976;6.120;2022-07-18T11:39:08;101051.19;;;39.33;22.23
58090;BME280;45149;50.976;6.120;2022-07-18T11:41:37;101045.09;;;38.66;24.25
58090;BME280;45149;50.976;6.120;2022-07-18T11:44:03;101053.38;;;38.30;22.45
58090;BME280;45149;50.976;6.120;2022-07-18T11:46:28;101044.41;;;39.01;22.27
58090;BME280;45149;50.976;6.120;2022-07-18T11:49:05;101046.66;;;38.52;23.05
58090;BME280;45149;50.976;6.120;2022-07-18T11:51:42;101046.31;;;38.68;22.68
58090;BME280;45149;50.976;6.120;2022-07-18T11:54:09;101046.69;;;38.60;22.60
58090;BME280;45149;50.976;6.120;2022-07-18T11:56:46;101043.63;;;39.44;21.40
58090;BME280;45149;50.976;6.120;2022-07-18T11:59:11;101035.34;;;38.13;22.04
58090;BME280;45149;50.976;6.120;2022-07-18T12:01:37;101040.41;;;39.06;21.31
58090;BME280;45149;50.976;6.120;2022-07-18T12:04:02;101044.69;;;38.60;21.73
58090;BME280;45149;50.976;6.120;2022-07-18T12:06:28;101031.63;;;38.93;21.77
58090;BME280;45149;50.976;6.120;2022-07-18T12:08:55;101032.47;;;39.22;22.37
58090;BME280;45149;50.976;6.120;2022-07-18T12:11:34;101028.00;;;39.57;20.95
58090;BME280;45149;50.976;6.120;2022-07-18T12:14:12;101026.06;;;39.26;21.73
58090;BME280;45149;50.976;6.120;2022-07-18T12:16:42;101022.81;;;38.69;21.64
58090;BME280;45149;50.976;6.120;2022-07-18T12:19:11;101019.25;;;38.80;21.56
58090;BME280;45149;50.976;6.120;2022-07-18T12:24:19;101021.97;;;39.91;21.39
58090;BME280;45149;50.976;6.120;2022-07-18T12:26:44;101023.63;;;39.67;21.14
58090;BME280;45149;50.976;6.120;2022-07-18T12:29:10;101002.09;;;39.06;21.71
58090;BME280;45149;50.976;6.120;2022-07-18T12:31:44;101011.28;;;39.14;21.17
58090;BME280;45149;50.976;6.120;2022-07-18T12:34:14;101009.72;;;39.38;20.93
58090;BME280;45149;50.976;6.120;2022-07-18T12:36:56;101012.47;;;39.64;21.21
58090;BME280;45149;50.976;6.120;2022-07-18T12:39:27;101015.00;;;38.05;21.55
58090;BME280;45149;50.976;6.120;2022-07-18T12:41:53;101010.06;;;38.76;21.26
58090;BME280;45149;50.976;6.120;2022-07-18T12:44:19;101002.91;;;39.32;21.58
58090;BME280;45149;50.976;6.120;2022-07-18T12:46:44;101004.50;;;38.83;21.42
58090;BME280;45149;50.976;6.120;2022-07-18T12:49:09;100999.31;;;39.39;22.15
58090;BME280;45149;50.976;6.120;2022-07-18T12:51:35;100995.66;;;39.85;20.65
58090;BME280;45149;50.976;6.120;2022-07-18T12:54:00;100993.75;;;39.21;20.50
58090;BME280;45149;50.976;6.120;2022-07-18T12:56:26;100993.34;;;38.76;21.16
58090;BME280;45149;50.976;6.120;2022-07-18T12:58:51;100990.34;;;38.18;21.34
58090;BME280;45149;50.976;6.120;2022-07-18T13:01:17;100990.13;;;39.02;20.91
58090;BME280;45149;50.976;6.120;2022-07-18T13:03:42;100982.56;;;38.78;20.83
58090;BME280;45149;50.976;6.120;2022-07-18T13:06:08;100982.56;;;39.39;20.30
58090;BME280;45149;50.976;6.120;2022-07-18T13:08:33;100979.72;;;39.53;20.65
58090;BME280;45149;50.976;6.120;2022-07-18T13:10:59;100975.41;;;39.34;22.02
58090;BME280;45149;50.976;6.120;2022-07-18T13:13:24;100975.19;;;40.10;20.59